createdAt,value
2016-05-29T00:00:51.607Z,0
2016-05-29T00:01:53.204Z,0
2016-05-29T00:02:51.534Z,0
2016-05-29T00:03:48.490Z,0
2016-05-29T00:04:48.415Z,0
2016-05-29T00:05:51.512Z,0
2016-05-29T00:06:51.342Z,0
2016-05-29T00:07:51.298Z,0
2016-05-29T00:08:51.442Z,0
2016-05-29T00:09:48.209Z,0
2016-05-29T00:10:48.134Z,0
2016-05-29T00:11:51.120Z,0
2016-05-29T00:12:48.124Z,0
2016-05-29T00:13:51.080Z,0
2016-05-29T00:14:48.019Z,0
2016-05-29T00:15:47.928Z,0
2016-05-29T00:16:54.353Z,0
2016-05-29T00:17:48.044Z,0
2016-05-29T00:18:48.031Z,0
2016-05-29T00:19:50.596Z,0
2016-05-29T00:20:47.599Z,0
2016-05-29T00:21:50.867Z,0
2016-05-29T00:22:47.619Z,0
2016-05-29T00:23:47.403Z,0
2016-05-29T00:24:47.344Z,0
2016-05-29T00:25:53.487Z,0
2016-05-29T00:26:47.443Z,0
2016-05-29T00:27:50.632Z,0
2016-05-29T00:28:50.307Z,0
2016-05-29T00:29:53.294Z,0
2016-05-29T00:30:47.438Z,0
2016-05-29T00:31:53.018Z,0
2016-05-29T00:32:46.987Z,0
2016-05-29T00:33:49.993Z,0
2016-05-29T00:34:47.055Z,0
2016-05-29T00:35:50.264Z,0
2016-05-29T00:36:46.810Z,0
2016-05-29T00:37:46.938Z,0
2016-05-29T00:38:46.862Z,0
2016-05-29T00:39:49.571Z,0
2016-05-29T00:40:46.775Z,0
2016-05-29T00:41:46.731Z,0
2016-05-29T00:42:52.548Z,0
2016-05-29T00:43:49.504Z,0
2016-05-29T00:44:46.801Z,0
2016-05-29T00:45:49.541Z,0
2016-05-29T00:46:58.731Z,0
2016-05-29T00:47:46.465Z,0
2016-05-29T00:48:49.408Z,0
2016-05-29T00:49:46.580Z,0
2016-05-29T00:50:46.333Z,0
2016-05-29T00:51:46.116Z,0
2016-05-29T00:52:46.261Z,0
2016-05-29T00:53:49.047Z,0
2016-05-29T00:54:46.375Z,0
2016-05-29T00:55:52.318Z,0
2016-05-29T00:56:49.054Z,0
2016-05-29T00:57:48.870Z,0
2016-05-29T00:58:48.982Z,0
2016-05-29T00:59:48.906Z,0
2016-05-29T01:00:46.296Z,0
2016-05-29T01:01:45.816Z,0
2016-05-29T01:02:45.615Z,0
2016-05-29T01:03:48.448Z,0
2016-05-29T01:04:48.717Z,0
2016-05-29T01:05:45.951Z,0
2016-05-29T01:06:48.457Z,0
2016-05-29T01:07:45.535Z,0
2016-05-29T01:08:45.490Z,0
2016-05-29T01:09:45.478Z,0
2016-05-29T01:10:45.417Z,0
2016-05-29T01:11:45.373Z,0
2016-05-29T01:12:48.314Z,0
2016-05-29T01:13:45.128Z,0
2016-05-29T01:14:51.947Z,0
2016-05-29T01:15:45.244Z,0
2016-05-29T01:16:45.153Z,0
2016-05-29T01:17:45.561Z,0
2016-05-29T01:18:45.033Z,0
2016-05-29T01:19:48.005Z,0
2016-05-29T01:20:47.975Z,0
2016-05-29T01:21:47.978Z,0
2016-05-29T01:22:45.466Z,0
2016-05-29T01:23:45.015Z,0
2016-05-29T01:24:44.799Z,0
2016-05-29T01:25:44.724Z,0
2016-05-29T01:26:47.695Z,0
2016-05-29T01:27:47.541Z,0
2016-05-29T01:28:44.591Z,0
2016-05-29T01:29:44.547Z,0
2016-05-29T01:30:44.691Z,0
2016-05-29T01:31:44.740Z,0
2016-05-29T01:32:47.618Z,0
2016-05-29T01:33:44.355Z,0
2016-05-29T01:34:47.310Z,0
2016-05-29T01:35:47.235Z,0
2016-05-29T01:36:44.347Z,0
2016-05-29T01:37:44.381Z,0
2016-05-29T01:38:47.149Z,0
2016-05-29T01:39:47.309Z,0
2016-05-29T01:40:44.045Z,0
2016-05-29T01:41:47.001Z,0
2016-05-29T01:42:43.957Z,0
2016-05-29T01:43:43.944Z,0
2016-05-29T01:44:46.868Z,0
2016-05-29T01:45:46.825Z,0
2016-05-29T01:46:43.765Z,0
2016-05-29T01:47:43.580Z,0
2016-05-29T01:48:43.536Z,0
2016-05-29T01:49:46.616Z,0
2016-05-29T01:50:43.431Z,0
2016-05-29T01:51:46.403Z,0
2016-05-29T01:52:43.343Z,0
2016-05-29T01:53:43.689Z,0
2016-05-29T01:54:43.614Z,0
2016-05-29T01:55:43.351Z,0
2016-05-29T01:56:43.150Z,0
2016-05-29T01:57:46.278Z,0
2016-05-29T01:58:46.218Z,0
2016-05-29T01:59:46.441Z,0
2016-05-29T02:00:45.974Z,0
2016-05-29T02:01:48.946Z,0
2016-05-29T02:02:52.044Z,0
2016-05-29T02:03:42.998Z,0
2016-05-29T02:04:57.800Z,0
2016-05-29T02:05:46.785Z,0
2016-05-29T02:06:42.694Z,0
2016-05-29T02:07:51.808Z,0
2016-05-29T02:08:42.777Z,0
2016-05-29T02:09:45.702Z,0
2016-05-29T02:10:42.938Z,0
2016-05-29T02:11:45.815Z,0
2016-05-29T02:12:42.616Z,0
2016-05-29T02:13:42.743Z,0
2016-05-29T02:14:42.496Z,0
2016-05-29T02:15:45.436Z,0
2016-05-29T02:16:42.392Z,0
2016-05-29T02:17:42.317Z,0
2016-05-29T02:18:45.320Z,0
2016-05-29T02:19:42.087Z,0
2016-05-29T02:20:42.059Z,0
2016-05-29T02:21:44.874Z,0
2016-05-29T02:22:45.142Z,0
2016-05-29T02:23:42.161Z,0
2016-05-29T02:24:42.038Z,0
2016-05-29T02:25:41.978Z,0
2016-05-29T02:26:45.138Z,0
2016-05-29T02:27:45.125Z,0
2016-05-29T02:28:41.861Z,0
2016-05-29T02:29:42.130Z,0
2016-05-29T02:30:41.727Z,0
2016-05-29T02:31:41.713Z,0
2016-05-29T02:32:41.701Z,0
2016-05-29T02:33:41.469Z,0
2016-05-29T02:34:41.785Z,0
2016-05-29T02:35:44.693Z,0
2016-05-29T02:36:44.477Z,0
2016-05-29T02:37:41.417Z,0
2016-05-29T02:38:43.935Z,0
2016-05-29T02:39:41.345Z,0
2016-05-29T02:40:41.347Z,0
2016-05-29T02:41:41.116Z,0
2016-05-29T02:42:44.228Z,0
2016-05-29T02:43:44.137Z,0
2016-05-29T02:44:40.951Z,0
2016-05-29T02:45:41.079Z,0
2016-05-29T02:46:41.410Z,0
2016-05-29T02:47:43.991Z,0
2016-05-29T02:48:40.995Z,0
2016-05-29T02:49:40.715Z,0
2016-05-29T02:50:44.109Z,0
2016-05-29T02:51:46.767Z,0
2016-05-29T02:52:40.738Z,0
2016-05-29T02:53:40.679Z,0
2016-05-29T02:54:40.635Z,0
2016-05-29T02:55:43.606Z,0
2016-05-29T02:56:43.530Z,0
2016-05-29T02:57:40.565Z,4
2016-05-29T02:58:40.302Z,4
2016-05-29T02:59:46.273Z,4
2016-05-29T03:00:43.652Z,4
2016-05-29T03:01:40.310Z,0
2016-05-29T03:02:40.110Z,4
2016-05-29T03:03:46.080Z,4
2016-05-29T03:04:40.005Z,8
2016-05-29T03:05:40.649Z,4
2016-05-29T03:06:40.088Z,8
2016-05-29T03:07:43.045Z,8
2016-05-29T03:08:43.016Z,8
2016-05-29T03:09:39.926Z,8
2016-05-29T03:10:45.912Z,12
2016-05-29T03:11:40.181Z,8
2016-05-29T03:12:40.012Z,12
2016-05-29T03:13:42.795Z,12
2016-05-29T03:14:39.564Z,16
2016-05-29T03:15:42.738Z,16
2016-05-29T03:16:39.648Z,20
2016-05-29T03:17:39.431Z,20
2016-05-29T03:18:39.527Z,20
2016-05-29T03:19:39.670Z,20
2016-05-29T03:20:39.580Z,24
2016-05-29T03:21:39.083Z,28
2016-05-29T03:22:39.350Z,32
2016-05-29T03:23:39.510Z,32
2016-05-29T03:24:42.309Z,36
2016-05-29T03:25:39.421Z,36
2016-05-29T03:26:39.237Z,40
2016-05-29T03:27:39.114Z,48
2016-05-29T03:28:39.086Z,48
2016-05-29T03:29:39.025Z,52
2016-05-29T03:30:41.997Z,56
2016-05-29T03:31:38.781Z,64
2016-05-29T03:32:38.893Z,72
2016-05-29T03:33:41.880Z,76
2016-05-29T03:34:38.805Z,80
2016-05-29T03:35:41.776Z,84
2016-05-29T03:36:38.748Z,84
2016-05-29T03:37:41.891Z,88
2016-05-29T03:38:38.457Z,92
2016-05-29T03:39:48.099Z,96
2016-05-29T03:40:41.524Z,100
2016-05-29T03:41:41.480Z,108
2016-05-29T03:42:38.264Z,116
2016-05-29T03:43:38.376Z,120
2016-05-29T03:44:38.332Z,132
2016-05-29T03:45:38.303Z,144
2016-05-29T03:46:38.087Z,152
2016-05-29T03:47:41.215Z,172
2016-05-29T03:48:38.358Z,184
2016-05-29T03:49:40.986Z,196
2016-05-29T03:50:44.489Z,212
2016-05-29T03:51:41.054Z,224
2016-05-29T03:52:37.978Z,240
2016-05-29T03:53:37.919Z,252
2016-05-29T03:54:37.734Z,268
2016-05-29T03:55:37.830Z,284
2016-05-29T03:56:37.989Z,304
2016-05-29T03:57:40.742Z,320
2016-05-29T03:58:40.713Z,328
2016-05-29T03:59:43.888Z,340
2016-05-29T04:00:40.687Z,352
2016-05-29T04:01:40.581Z,372
2016-05-29T04:02:37.521Z,388
2016-05-29T04:03:40.210Z,400
2016-05-29T04:04:37.824Z,408
2016-05-29T04:05:37.608Z,408
2016-05-29T04:06:37.360Z,412
2016-05-29T04:07:37.284Z,424
2016-05-29T04:08:37.085Z,444
2016-05-29T04:09:37.180Z,472
2016-05-29T04:10:40.167Z,504
2016-05-29T04:11:40.107Z,528
2016-05-29T04:12:37.063Z,552
2016-05-29T04:13:37.004Z,568
2016-05-29T04:14:36.975Z,592
2016-05-29T04:15:36.931Z,620
2016-05-29T04:16:43.496Z,652
2016-05-29T04:17:36.670Z,676
2016-05-29T04:18:40.392Z,700
2016-05-29T04:19:36.723Z,720
2016-05-29T04:20:39.710Z,736
2016-05-29T04:21:36.697Z,752
2016-05-29T04:22:36.778Z,768
2016-05-29T04:23:39.593Z,784
2016-05-29T04:24:45.720Z,820
2016-05-29T04:25:39.473Z,828
2016-05-29T04:26:42.303Z,828
2016-05-29T04:27:36.714Z,824
2016-05-29T04:28:36.403Z,832
2016-05-29T04:29:45.936Z,856
2016-05-29T04:30:39.424Z,872
2016-05-29T04:31:39.036Z,892
2016-05-29T04:32:35.977Z,912
2016-05-29T04:33:48.104Z,932
2016-05-29T04:34:48.061Z,948
2016-05-29T04:35:36.532Z,948
2016-05-29T04:36:39.066Z,952
2016-05-29T04:37:35.912Z,956
2016-05-29T04:38:36.070Z,960
2016-05-29T04:39:35.746Z,964
2016-05-29T04:40:38.607Z,976
2016-05-29T04:41:35.923Z,992
2016-05-29T04:42:38.675Z,1012
2016-05-29T04:43:35.694Z,1036
2016-05-29T04:44:35.602Z,1036
2016-05-29T04:45:38.558Z,1008
2016-05-29T04:46:35.327Z,1032
2016-05-29T04:47:41.673Z,1084
2016-05-29T04:48:38.270Z,1184
2016-05-29T04:49:35.570Z,1156
2016-05-29T04:50:36.040Z,1120
2016-05-29T04:51:35.481Z,1144
2016-05-29T04:52:35.077Z,1132
2016-05-29T04:53:35.111Z,1120
2016-05-29T04:54:35.114Z,1148
2016-05-29T04:55:35.382Z,1176
2016-05-29T04:56:34.884Z,1196
2016-05-29T04:57:34.997Z,1216
2016-05-29T04:58:35.000Z,1228
2016-05-29T04:59:34.736Z,1248
2016-05-29T05:00:34.864Z,1260
2016-05-29T05:01:34.805Z,1284
2016-05-29T05:02:34.448Z,1336
2016-05-29T05:03:34.732Z,1388
2016-05-29T05:04:34.485Z,1432
2016-05-29T05:05:34.377Z,1432
2016-05-29T05:06:35.333Z,1440
2016-05-29T05:07:37.555Z,1472
2016-05-29T05:08:34.463Z,1520
2016-05-29T05:09:37.436Z,1544
2016-05-29T05:10:37.407Z,1564
2016-05-29T05:11:37.754Z,1616
2016-05-29T05:12:34.552Z,1664
2016-05-29T05:13:37.134Z,1728
2016-05-29T05:14:34.246Z,1744
2016-05-29T05:15:34.154Z,1752
2016-05-29T05:16:34.111Z,1772
2016-05-29T05:17:34.082Z,1800
2016-05-29T05:18:33.866Z,1808
2016-05-29T05:19:33.993Z,1844
2016-05-29T05:20:34.636Z,1900
2016-05-29T05:21:37.546Z,1916
2016-05-29T05:22:33.704Z,1936
2016-05-29T05:23:33.661Z,1932
2016-05-29T05:24:33.756Z,1924
2016-05-29T05:25:33.713Z,1880
2016-05-29T05:26:34.122Z,1864
2016-05-29T05:27:33.655Z,1872
2016-05-29T05:28:33.440Z,1908
2016-05-29T05:29:33.786Z,1972
2016-05-29T05:30:39.508Z,2052
2016-05-29T05:31:33.447Z,2084
2016-05-29T05:32:33.278Z,2068
2016-05-29T05:33:33.344Z,2080
2016-05-29T05:34:33.315Z,2096
2016-05-29T05:35:34.177Z,2136
2016-05-29T05:36:33.071Z,2208
2016-05-29T05:37:33.058Z,2288
2016-05-29T05:38:32.935Z,2400
2016-05-29T05:39:33.188Z,2452
2016-05-29T05:40:33.144Z,2536
2016-05-29T05:41:33.099Z,2636
2016-05-29T05:42:32.962Z,2732
2016-05-29T05:43:32.917Z,2864
2016-05-29T05:44:32.888Z,2976
2016-05-29T05:45:33.016Z,3024
2016-05-29T05:46:32.660Z,3092
2016-05-29T05:47:32.709Z,3208
2016-05-29T05:48:32.946Z,3308
2016-05-29T05:49:41.637Z,3344
2016-05-29T05:50:33.139Z,3340
2016-05-29T05:51:32.487Z,3404
2016-05-29T05:52:32.364Z,3436
2016-05-29T05:53:32.444Z,3472
2016-05-29T05:54:32.338Z,3480
2016-05-29T05:55:32.247Z,3420
2016-05-29T05:56:32.342Z,3316
2016-05-29T05:57:32.189Z,3104
2016-05-29T05:58:32.130Z,2964
2016-05-29T05:59:35.414Z,2908
2016-05-29T06:00:31.963Z,2808
2016-05-29T06:01:34.950Z,2648
2016-05-29T06:02:32.046Z,2480
2016-05-29T06:03:32.065Z,2360
2016-05-29T06:04:34.817Z,2248
2016-05-29T06:05:36.039Z,2176
2016-05-29T06:06:31.697Z,2176
2016-05-29T06:07:32.139Z,2200
2016-05-29T06:08:31.797Z,2208
2016-05-29T06:09:31.924Z,2128
2016-05-29T06:10:32.208Z,1976
2016-05-29T06:11:35.165Z,1840
2016-05-29T06:12:31.449Z,1740
2016-05-29T06:13:31.435Z,1720
2016-05-29T06:14:31.532Z,1664
2016-05-29T06:15:31.504Z,1688
2016-05-29T06:16:31.412Z,1724
2016-05-29T06:17:31.587Z,1792
2016-05-29T06:18:31.355Z,1804
2016-05-29T06:19:31.155Z,1780
2016-05-29T06:20:31.329Z,1796
2016-05-29T06:21:31.082Z,1820
2016-05-29T06:22:31.365Z,1888
2016-05-29T06:23:30.993Z,1940
2016-05-29T06:24:31.137Z,1960
2016-05-29T06:25:30.873Z,2008
2016-05-29T06:26:30.689Z,1968
2016-05-29T06:27:31.192Z,1968
2016-05-29T06:28:30.945Z,1904
2016-05-29T06:29:31.041Z,1872
2016-05-29T06:30:30.825Z,1796
2016-05-29T06:31:30.765Z,1772
2016-05-29T06:32:30.753Z,1752
2016-05-29T06:33:33.724Z,1736
2016-05-29T06:34:33.819Z,1720
2016-05-29T06:35:39.464Z,1704
2016-05-29T06:36:30.435Z,1672
2016-05-29T06:37:36.531Z,1664
2016-05-29T06:38:33.658Z,1656
2016-05-29T06:39:33.412Z,1652
2016-05-29T06:40:30.477Z,1664
2016-05-29T06:41:30.495Z,1720
2016-05-29T06:42:33.155Z,1832
2016-05-29T06:43:30.516Z,1928
2016-05-29T06:44:36.034Z,2144
2016-05-29T06:45:30.568Z,2192
2016-05-29T06:46:33.166Z,2232
2016-05-29T06:47:33.152Z,2352
2016-05-29T06:48:30.014Z,2228
2016-05-29T06:49:29.813Z,2200
2016-05-29T06:50:29.940Z,2196
2016-05-29T06:51:30.569Z,2284
2016-05-29T06:52:33.134Z,2292
2016-05-29T06:53:32.793Z,2372
2016-05-29T06:54:29.952Z,2308
2016-05-29T06:55:30.127Z,2320
2016-05-29T06:56:29.879Z,2280
2016-05-29T06:57:32.663Z,2260
2016-05-29T06:58:29.713Z,2268
2016-05-29T06:59:32.403Z,2312
2016-05-29T07:00:29.484Z,2424
2016-05-29T07:01:29.345Z,2456
2016-05-29T07:02:32.614Z,2564
2016-05-29T07:03:29.195Z,2576
2016-05-29T07:04:29.447Z,2472
2016-05-29T07:05:36.138Z,2272
2016-05-29T07:06:32.703Z,2052
2016-05-29T07:07:32.191Z,1940
2016-05-29T07:08:29.177Z,1852
2016-05-29T07:09:29.305Z,1836
2016-05-29T07:10:28.886Z,1840
2016-05-29T07:11:32.013Z,1868
2016-05-29T07:12:29.235Z,1916
2016-05-29T07:13:28.910Z,1936
2016-05-29T07:14:28.880Z,1936
2016-05-29T07:15:28.837Z,1976
2016-05-29T07:16:28.777Z,2056
2016-05-29T07:17:28.951Z,2108
2016-05-29T07:18:34.720Z,2156
2016-05-29T07:19:31.691Z,2184
2016-05-29T07:20:31.460Z,2296
2016-05-29T07:21:29.071Z,2416
2016-05-29T07:22:34.371Z,2584
2016-05-29T07:23:31.358Z,2736
2016-05-29T07:24:28.439Z,2932
2016-05-29T07:25:31.989Z,3112
2016-05-29T07:26:31.351Z,3240
2016-05-29T07:27:28.353Z,3340
2016-05-29T07:28:34.325Z,3472
2016-05-29T07:29:28.250Z,3620
2016-05-29T07:30:31.033Z,3796
2016-05-29T07:31:28.145Z,3880
2016-05-29T07:32:31.086Z,3908
2016-05-29T07:33:34.260Z,4020
2016-05-29T07:34:28.185Z,4136
2016-05-29T07:35:28.687Z,4140
2016-05-29T07:36:28.190Z,4044
2016-05-29T07:37:33.896Z,3904
2016-05-29T07:38:30.819Z,3868
2016-05-29T07:39:27.964Z,3912
2016-05-29T07:40:30.591Z,3980
2016-05-29T07:41:27.860Z,4104
2016-05-29T07:42:27.815Z,4308
2016-05-29T07:43:27.288Z,4620
2016-05-29T07:44:27.555Z,4820
2016-05-29T07:45:27.354Z,5056
2016-05-29T07:46:27.467Z,5176
2016-05-29T07:47:30.438Z,5256
2016-05-29T07:48:27.394Z,5268
2016-05-29T07:49:30.334Z,5180
2016-05-29T07:50:28.227Z,5148
2016-05-29T07:51:28.152Z,5188
2016-05-29T07:52:30.045Z,5244
2016-05-29T07:53:27.173Z,5336
2016-05-29T07:54:26.973Z,5392
2016-05-29T07:55:27.085Z,5324
2016-05-29T07:56:27.368Z,5164
2016-05-29T07:57:27.028Z,4944
2016-05-29T07:58:26.796Z,4908
2016-05-29T07:59:26.908Z,4896
2016-05-29T08:00:26.864Z,4848
2016-05-29T08:01:26.789Z,4744
2016-05-29T08:02:26.760Z,4700
2016-05-29T08:03:26.762Z,4688
2016-05-29T08:04:29.546Z,4608
2016-05-29T08:05:29.564Z,4692
2016-05-29T08:06:29.474Z,4788
2016-05-29T08:07:29.570Z,4652
2016-05-29T08:08:26.588Z,4636
2016-05-29T08:09:26.575Z,4648
2016-05-29T08:10:29.516Z,4684
2016-05-29T08:11:26.222Z,4696
2016-05-29T08:12:26.505Z,4752
2016-05-29T08:13:26.118Z,4808
2016-05-29T08:14:26.088Z,4888
2016-05-29T08:15:26.186Z,5016
2016-05-29T08:16:26.219Z,5180
2016-05-29T08:17:29.221Z,5256
2016-05-29T08:18:26.069Z,5296
2016-05-29T08:19:26.040Z,5464
2016-05-29T08:20:25.965Z,5636
2016-05-29T08:21:26.607Z,5652
2016-05-29T08:22:28.893Z,5680
2016-05-29T08:23:29.051Z,5672
2016-05-29T08:24:34.694Z,5852
2016-05-29T08:25:25.759Z,6060
2016-05-29T08:26:28.824Z,6240
2016-05-29T08:27:25.740Z,6144
2016-05-29T08:28:28.374Z,5868
2016-05-29T08:29:25.649Z,5664
2016-05-29T08:30:25.627Z,5524
2016-05-29T08:31:25.621Z,5504
2016-05-29T08:32:28.616Z,5524
2016-05-29T08:33:25.533Z,5392
2016-05-29T08:34:25.185Z,5380
2016-05-29T08:35:25.727Z,5372
2016-05-29T08:36:25.753Z,5536
2016-05-29T08:37:25.462Z,5252
2016-05-29T08:38:25.405Z,5008
2016-05-29T08:39:25.239Z,4448
2016-05-29T08:40:24.995Z,4208
2016-05-29T08:41:25.469Z,3796
2016-05-29T08:42:25.192Z,3436
2016-05-29T08:43:25.382Z,3168
2016-05-29T08:44:25.089Z,2856
2016-05-29T08:45:25.155Z,2804
2016-05-29T08:46:25.017Z,2688
2016-05-29T08:47:28.286Z,2764
2016-05-29T08:48:24.837Z,2980
2016-05-29T08:49:30.949Z,3316
2016-05-29T08:50:24.843Z,3564
2016-05-29T08:51:28.268Z,4224
2016-05-29T08:52:25.474Z,4004
2016-05-29T08:53:24.836Z,4100
2016-05-29T08:54:24.636Z,3556
2016-05-29T08:55:24.827Z,3372
2016-05-29T08:56:24.689Z,3172
2016-05-29T08:57:27.661Z,3132
2016-05-29T08:58:25.789Z,3160
2016-05-29T08:59:24.462Z,3160
2016-05-29T09:00:24.450Z,3352
2016-05-29T09:01:24.656Z,3624
2016-05-29T09:02:24.534Z,3640
2016-05-29T09:03:24.317Z,3704
2016-05-29T09:04:24.320Z,3988
2016-05-29T09:05:24.244Z,3888
2016-05-29T09:06:24.528Z,3796
2016-05-29T09:07:32.172Z,3764
2016-05-29T09:08:27.112Z,3700
2016-05-29T09:09:24.052Z,3600
2016-05-29T09:10:23.992Z,3936
2016-05-29T09:11:23.776Z,3744
2016-05-29T09:12:23.920Z,3584
2016-05-29T09:13:23.954Z,3444
2016-05-29T09:14:23.816Z,3408
2016-05-29T09:15:23.974Z,3428
2016-05-29T09:16:26.805Z,3548
2016-05-29T09:17:23.683Z,3732
2016-05-29T09:18:25.623Z,3672
2016-05-29T09:19:23.282Z,3060
2016-05-29T09:20:26.785Z,3084
2016-05-29T09:21:23.241Z,3028
2016-05-29T09:22:26.509Z,2984
2016-05-29T09:23:23.637Z,3200
2016-05-29T09:24:23.249Z,3584
2016-05-29T09:25:26.423Z,4112
2016-05-29T09:26:23.176Z,4364
2016-05-29T09:27:23.476Z,4284
2016-05-29T09:28:23.072Z,4052
2016-05-29T09:29:23.168Z,3832
2016-05-29T09:30:23.156Z,3536
2016-05-29T09:31:23.095Z,3404
2016-05-29T09:32:26.067Z,3096
2016-05-29T09:33:23.054Z,3488
2016-05-29T09:34:22.807Z,4396
2016-05-29T09:35:29.716Z,4532
2016-05-29T09:36:22.750Z,4604
2016-05-29T09:37:22.847Z,3896
2016-05-29T09:38:26.005Z,4108
2016-05-29T09:39:28.789Z,4000
2016-05-29T09:40:22.697Z,3648
2016-05-29T09:41:22.685Z,3404
2016-05-29T09:42:22.641Z,3216
2016-05-29T09:43:22.785Z,3372
2016-05-29T09:44:22.552Z,3600
2016-05-29T09:45:22.321Z,3732
2016-05-29T09:46:22.714Z,3648
2016-05-29T09:47:22.436Z,3692
2016-05-29T09:48:26.891Z,3872
2016-05-29T09:49:28.176Z,4248
2016-05-29T09:50:22.304Z,4588
2016-05-29T09:51:22.212Z,4908
2016-05-29T09:52:31.543Z,5228
2016-05-29T09:53:22.154Z,5224
2016-05-29T09:54:22.111Z,5224
2016-05-29T09:55:21.926Z,5304
2016-05-29T09:56:22.241Z,5580
2016-05-29T09:57:21.978Z,6036
2016-05-29T09:58:27.965Z,6520
2016-05-29T09:59:24.796Z,6812
2016-05-29T10:00:21.892Z,6952
2016-05-29T10:01:21.849Z,6924
2016-05-29T10:02:21.757Z,7040
2016-05-29T10:03:21.729Z,7160
2016-05-29T10:04:31.856Z,7020
2016-05-29T10:05:21.639Z,6888
2016-05-29T10:06:21.753Z,6812
2016-05-29T10:07:21.802Z,6828
2016-05-29T10:08:21.508Z,6880
2016-05-29T10:09:21.338Z,6796
2016-05-29T10:10:25.889Z,6536
2016-05-29T10:11:21.235Z,6416
2016-05-29T10:12:21.534Z,6380
2016-05-29T10:13:21.146Z,6324
2016-05-29T10:14:21.258Z,6360
2016-05-29T10:15:21.214Z,6464
2016-05-29T10:16:21.216Z,6544
2016-05-29T10:17:21.001Z,6580
2016-05-29T10:18:22.174Z,6324
2016-05-29T10:19:24.257Z,6032
2016-05-29T10:20:21.040Z,6012
2016-05-29T10:21:20.808Z,5864
2016-05-29T10:22:21.467Z,5708
2016-05-29T10:23:24.127Z,5824
2016-05-29T10:24:21.363Z,6072
2016-05-29T10:25:23.818Z,6320
2016-05-29T10:26:26.760Z,6148
2016-05-29T10:27:20.699Z,5740
2016-05-29T10:28:20.671Z,5292
2016-05-29T10:29:23.689Z,4944
2016-05-29T10:30:21.020Z,4756
2016-05-29T10:31:23.554Z,4712
2016-05-29T10:32:20.697Z,4784
2016-05-29T10:33:20.669Z,4836
2016-05-29T10:34:23.734Z,4788
2016-05-29T10:35:20.409Z,4640
2016-05-29T10:36:26.380Z,4428
2016-05-29T10:37:20.164Z,4268
2016-05-29T10:38:22.932Z,4068
2016-05-29T10:39:20.231Z,3884
2016-05-29T10:40:20.156Z,3704
2016-05-29T10:41:23.550Z,3480
2016-05-29T10:42:19.771Z,3276
2016-05-29T10:43:19.930Z,3052
2016-05-29T10:44:20.183Z,2832
2016-05-29T10:45:19.935Z,2668
2016-05-29T10:46:19.735Z,2584
2016-05-29T10:47:19.863Z,2560
2016-05-29T10:48:19.663Z,2516
2016-05-29T10:49:19.852Z,2456
2016-05-29T10:50:19.730Z,2384
2016-05-29T10:51:22.452Z,2312
2016-05-29T10:52:19.641Z,2256
2016-05-29T10:53:19.769Z,2200
2016-05-29T10:54:19.538Z,2140
2016-05-29T10:55:19.509Z,2076
2016-05-29T10:56:19.652Z,2032
2016-05-29T10:57:19.296Z,2012
2016-05-29T10:58:19.220Z,2040
2016-05-29T10:59:19.192Z,2036
2016-05-29T11:00:31.554Z,1992
2016-05-29T11:01:31.291Z,1988
2016-05-29T11:02:22.418Z,2008
2016-05-29T11:03:19.187Z,2060
2016-05-29T11:04:21.971Z,2148
2016-05-29T11:05:22.114Z,2184
2016-05-29T11:06:22.601Z,2212
2016-05-29T11:07:22.229Z,2248
2016-05-29T11:08:19.028Z,2276
2016-05-29T11:09:22.422Z,2292
2016-05-29T11:10:27.769Z,2348
2016-05-29T11:11:18.833Z,2408
2016-05-29T11:12:24.805Z,2448
2016-05-29T11:13:24.823Z,2452
2016-05-29T11:14:21.669Z,2460
2016-05-29T11:15:18.703Z,2456
2016-05-29T11:16:24.737Z,2440
2016-05-29T11:17:27.474Z,2472
2016-05-29T11:18:18.774Z,2536
2016-05-29T11:19:18.480Z,2592
2016-05-29T11:20:18.623Z,2644
2016-05-29T11:21:18.501Z,2744
2016-05-29T11:22:18.363Z,2948
2016-05-29T11:23:18.397Z,3352
2016-05-29T11:24:21.118Z,3744
2016-05-29T11:25:18.230Z,3936
2016-05-29T11:26:18.186Z,3872
2016-05-29T11:27:18.346Z,3792
2016-05-29T11:28:20.973Z,3800
2016-05-29T11:29:18.256Z,3980
2016-05-29T11:30:18.041Z,4240
2016-05-29T11:31:18.059Z,4396
2016-05-29T11:32:17.921Z,4364
2016-05-29T11:33:17.939Z,4224
2016-05-29T11:34:21.051Z,4204
2016-05-29T11:35:17.789Z,4280
2016-05-29T11:36:18.339Z,4644
2016-05-29T11:37:17.684Z,4844
2016-05-29T11:38:20.672Z,4860
2016-05-29T11:39:17.611Z,4972
2016-05-29T11:40:17.584Z,5260
2016-05-29T11:41:17.539Z,5528
2016-05-29T11:42:17.480Z,6096
2016-05-29T11:43:23.638Z,6424
2016-05-29T11:44:17.469Z,6492
2016-05-29T11:45:17.347Z,6760
2016-05-29T11:46:17.333Z,7056
2016-05-29T11:47:20.274Z,7740
2016-05-29T11:48:17.636Z,8280
2016-05-29T11:49:17.185Z,8304
2016-05-29T11:50:23.360Z,8040
2016-05-29T11:51:20.660Z,8184
2016-05-29T11:52:23.068Z,8476
2016-05-29T11:53:26.540Z,8260
2016-05-29T11:54:19.965Z,7712
2016-05-29T11:55:19.952Z,7372
2016-05-29T11:56:17.110Z,7072
2016-05-29T11:57:19.832Z,6632
2016-05-29T11:58:16.835Z,6152
2016-05-29T11:59:16.978Z,5364
2016-05-29T12:00:19.699Z,4644
2016-05-29T12:01:19.656Z,4768
2016-05-29T12:02:25.876Z,4876
2016-05-29T12:03:19.598Z,4460
2016-05-29T12:04:19.554Z,4028
2016-05-29T12:05:19.479Z,3532
2016-05-29T12:06:16.465Z,3428
2016-05-29T12:07:16.484Z,3368
2016-05-29T12:08:16.393Z,3376
2016-05-29T12:09:19.348Z,3308
2016-05-29T12:10:16.695Z,3092
2016-05-29T12:11:19.308Z,2912
2016-05-29T12:12:16.185Z,2768
2016-05-29T12:13:16.297Z,2880
2016-05-29T12:14:21.987Z,3300
2016-05-29T12:15:19.115Z,3708
2016-05-29T12:16:19.289Z,4272
2016-05-29T12:17:16.230Z,4804
2016-05-29T12:18:18.638Z,5420
2016-05-29T12:19:16.094Z,6344
2016-05-29T12:20:18.863Z,6856
2016-05-29T12:21:19.100Z,6904
2016-05-29T12:22:18.790Z,6852
2016-05-29T12:23:15.761Z,6488
2016-05-29T12:24:18.888Z,5668
2016-05-29T12:25:15.658Z,5208
2016-05-29T12:26:15.676Z,4776
2016-05-29T12:27:15.787Z,4488
2016-05-29T12:28:15.493Z,4000
2016-05-29T12:29:15.449Z,3336
2016-05-29T12:30:18.452Z,3264
2016-05-29T12:31:21.408Z,3284
2016-05-29T12:32:15.535Z,3288
2016-05-29T12:33:18.287Z,3268
2016-05-29T12:34:15.134Z,3164
2016-05-29T12:35:18.435Z,3140
2016-05-29T12:36:19.140Z,3172
2016-05-29T12:37:18.331Z,3016
2016-05-29T12:38:15.286Z,3012
2016-05-29T12:39:15.242Z,2908
2016-05-29T12:40:20.994Z,2984
2016-05-29T12:41:14.935Z,3216
2016-05-29T12:42:17.969Z,3544
2016-05-29T12:43:18.564Z,3780
2016-05-29T12:44:27.067Z,4132
2016-05-29T12:45:14.992Z,4372
2016-05-29T12:46:14.730Z,4376
2016-05-29T12:47:29.904Z,4484
2016-05-29T12:48:17.657Z,4856
2016-05-29T12:49:14.597Z,5456
2016-05-29T12:50:17.553Z,6308
2016-05-29T12:51:14.899Z,6260
2016-05-29T12:52:14.496Z,6484
2016-05-29T12:53:17.498Z,6952
2016-05-29T12:54:20.236Z,6816
2016-05-29T12:55:14.832Z,6180
2016-05-29T12:56:14.147Z,5548
2016-05-29T12:57:14.649Z,4944
2016-05-29T12:58:17.199Z,4096
2016-05-29T12:59:14.155Z,4316
2016-05-29T13:00:14.315Z,3828
2016-05-29T13:01:17.113Z,3480
2016-05-29T13:02:13.897Z,3968
2016-05-29T13:03:13.978Z,4344
2016-05-29T13:04:13.965Z,4744
2016-05-29T13:05:14.093Z,5180
2016-05-29T13:06:14.471Z,5180
2016-05-29T13:07:14.004Z,4860
2016-05-29T13:08:16.617Z,4400
2016-05-29T13:09:13.729Z,4164
2016-05-29T13:10:13.684Z,4016
2016-05-29T13:11:16.640Z,3920
2016-05-29T13:12:13.596Z,3928
2016-05-29T13:13:16.568Z,3720
2016-05-29T13:14:16.539Z,3512
2016-05-29T13:15:19.511Z,3360
2016-05-29T13:16:19.435Z,3276
2016-05-29T13:17:16.781Z,3056
2016-05-29T13:18:16.159Z,2972
2016-05-29T13:19:19.271Z,2980
2016-05-29T13:20:19.102Z,3112
2016-05-29T13:21:13.480Z,3136
2016-05-29T13:22:22.233Z,2856
2016-05-29T13:23:15.954Z,2948
2016-05-29T13:24:16.066Z,3108
2016-05-29T13:25:16.038Z,3376
2016-05-29T13:26:18.993Z,3400
2016-05-29T13:27:12.762Z,3204
2016-05-29T13:28:15.733Z,2680
2016-05-29T13:29:13.438Z,2360
2016-05-29T13:30:18.504Z,2368
2016-05-29T13:31:12.773Z,2528
2016-05-29T13:32:12.885Z,2900
2016-05-29T13:33:21.668Z,3020
2016-05-29T13:34:18.812Z,3172
2016-05-29T13:35:15.409Z,3172
2016-05-29T13:36:20.082Z,3072
2016-05-29T13:37:21.507Z,2848
2016-05-29T13:38:18.494Z,2292
2016-05-29T13:39:18.373Z,1944
2016-05-29T13:40:12.343Z,1856
2016-05-29T13:41:18.534Z,1864